Time;durP1;ratioP1;P1;durP2;ratioP2;P2;SDS_P1;SDS_P2;PMS_P1;PMS_P2;Temp;Humidity;BMP_temperature;BMP_pressure;BME280_temperature;BME280_humidity;BME280_pressure;Samples;Min_cycle;Max_cycle;Signal;HPM_P1;HPM_P2
2022/08/04 00:00:58;;;;;;;22.63;20.90;;;;;;;;;;5034628;28;20438;-81
2022/08/04 00:03:29;;;;;;;24.27;22.33;;;;;;;;;;5034553;28;20423;-81
2022/08/04 00:06:01;;;;;;;23.37;21.57;;;;;;;;;;5034398;28;20488;-80
2022/08/04 00:08:34;;;;;;;24.27;22.40;;;;;;;;;;5034803;28;20475;-80
2022/08/04 00:11:03;;;;;;;24.00;21.90;;;;;;;;;;5034744;28;20442;-80
2022/08/04 00:13:33;;;;;;;26.27;24.10;;;;;;;;;;5033668;28;20844;-80
2022/08/04 00:16:04;;;;;;;22.40;20.90;;;;;;;;;;5034281;28;20425;-80
2022/08/04 00:18:34;;;;;;;23.40;21.70;;;;;;;;;;5036192;28;20440;-79
2022/08/04 00:21:06;;;;;;;25.30;22.93;;;;;;;;;;5034257;28;20410;-79
2022/08/04 00:23:34;;;;;;;23.63;21.40;;;;;;;;;;5034457;28;20423;-80
2022/08/04 00:26:02;;;;;;;24.30;22.50;;;;;;;;;;5034014;28;20513;-80
2022/08/04 00:28:30;;;;;;;24.07;22.47;;;;;;;;;;5032896;28;20783;-80
2022/08/04 00:30:58;;;;;;;26.80;24.20;;;;;;;;;;5034335;28;20418;-80
2022/08/04 00:33:26;;;;;;;23.87;21.90;;;;;;;;;;5034078;28;20763;-80
2022/08/04 00:35:55;;;;;;;22.73;20.90;;;;;;;;;;5034323;28;20775;-79
2022/08/04 00:38:22;;;;;;;24.40;22.30;;;;;;;;;;5036409;28;20437;-80
2022/08/04 00:40:57;;;;;;;24.97;22.93;;;;;;;;;;5035290;28;20411;-80
2022/08/04 00:43:29;;;;;;;23.93;22.20;;;;;;;;;;5032608;28;20428;-80
2022/08/04 00:46:20;;;;;;;24.67;22.57;;;;;;;;;;5033696;28;20491;-80
2022/08/04 00:49:02;;;;;;;22.33;20.90;;;;;;;;;;5034004;28;20445;-79
2022/08/04 00:51:36;;;;;;;23.00;21.20;;;;;;;;;;5033973;28;20403;-80
2022/08/04 00:54:07;;;;;;;23.23;21.50;;;;;;;;;;5033510;28;20814;-80
2022/08/04 00:56:47;;;;;;;22.73;21.03;;;;;;;;;;5033394;28;20439;-80
2022/08/04 00:59:19;;;;;;;24.30;22.50;;;;;;;;;;5032167;28;20468;-79
2022/08/04 01:01:55;;;;;;;22.30;20.60;;;;;;;;;;5033332;28;20447;-79
2022/08/04 01:04:25;;;;;;;23.70;21.83;;;;;;;;;;5033375;28;20914;-80
2022/08/04 01:07:02;;;;;;;24.07;22.07;;;;;;;;;;5033549;28;20484;-80
2022/08/04 01:09:39;;;;;;;22.93;21.53;;;;;;;;;;5033393;28;20411;-80
2022/08/04 01:12:15;;;;;;;23.00;21.20;;;;;;;;;;5033518;28;20897;-80
2022/08/04 01:14:48;;;;;;;22.97;21.37;;;;;;;;;;5033197;28;20406;-80
2022/08/04 01:17:20;;;;;;;23.97;21.83;;;;;;;;;;5033438;28;20425;-80
2022/08/04 01:20:00;;;;;;;22.30;20.70;;;;;;;;;;5033494;28;20451;-79
2022/08/04 01:22:50;;;;;;;23.27;21.33;;;;;;;;;;5033088;28;20419;-80
2022/08/04 01:25:33;;;;;;;24.10;22.27;;;;;;;;;;5032339;28;20419;-80
2022/08/04 01:28:16;;;;;;;23.30;21.40;;;;;;;;;;5020723;28;20493;-80
2022/08/04 01:30:46;;;;;;;23.80;21.80;;;;;;;;;;5032926;28;20410;-80
2022/08/04 01:33:14;;;;;;;22.83;21.03;;;;;;;;;;5033037;28;20788;-80
2022/08/04 01:35:45;;;;;;;23.27;21.47;;;;;;;;;;5033216;28;20447;-80
2022/08/04 01:38:16;;;;;;;22.30;20.90;;;;;;;;;;5033179;28;20425;-80
2022/08/04 01:40:45;;;;;;;23.93;22.23;;;;;;;;;;5032787;28;20446;-80
2022/08/04 01:43:14;;;;;;;23.63;21.80;;;;;;;;;;5033029;28;20402;-80
2022/08/04 01:45:42;;;;;;;23.33;21.60;;;;;;;;;;5031361;28;21003;-80
2022/08/04 01:48:11;;;;;;;23.37;21.57;;;;;;;;;;5032932;28;20509;-80
2022/08/04 01:50:39;;;;;;;23.03;21.37;;;;;;;;;;5032930;28;20836;-79
2022/08/04 01:53:07;;;;;;;24.27;21.87;;;;;;;;;;5032778;28;20418;-80
2022/08/04 01:55:35;;;;;;;22.73;20.93;;;;;;;;;;5032463;28;20445;-80
2022/08/04 01:58:05;;;;;;;22.43;20.93;;;;;;;;;;5032579;28;20414;-79
2022/08/04 02:00:33;;;;;;;24.23;21.90;;;;;;;;;;5032610;28;20438;-80
2022/08/04 02:03:00;;;;;;;23.67;21.87;;;;;;;;;;5032837;28;20414;-80
2022/08/04 02:05:29;;;;;;;24.20;22.37;;;;;;;;;;5032835;28;20459;-80
2022/08/04 02:08:05;;;;;;;22.10;20.60;;;;;;;;;;5032450;28;20488;-80
2022/08/04 02:10:46;;;;;;;24.83;22.90;;;;;;;;;;5032869;28;20415;-80
2022/08/04 02:13:19;;;;;;;22.70;21.20;;;;;;;;;;5032569;28;20818;-80
2022/08/04 02:15:54;;;;;;;22.03;20.20;;;;;;;;;;5031115;28;20931;-80
2022/08/04 02:18:24;;;;;;;23.50;21.53;;;;;;;;;;5032707;28;20537;-79
2022/08/04 02:20:56;;;;;;;23.37;21.30;;;;;;;;;;5032302;28;20418;-80
2022/08/04 02:23:29;;;;;;;23.67;21.53;;;;;;;;;;5032095;28;20461;-80
2022/08/04 02:25:57;;;;;;;22.53;20.93;;;;;;;;;;5032217;28;20435;-79
2022/08/04 02:28:31;;;;;;;22.90;20.87;;;;;;;;;;5032393;28;20952;-80
2022/08/04 02:31:03;;;;;;;21.80;20.40;;;;;;;;;;5031184;28;20450;-79
2022/08/04 02:33:34;;;;;;;22.67;21.07;;;;;;;;;;5032474;28;20443;-80
2022/08/04 02:36:04;;;;;;;22.27;20.37;;;;;;;;;;5034821;28;20789;-79
2022/08/04 02:38:40;;;;;;;21.43;20.03;;;;;;;;;;5036204;28;20421;-80
2022/08/04 02:41:08;;;;;;;23.33;21.60;;;;;;;;;;5036410;28;20439;-80
2022/08/04 02:43:36;;;;;;;22.60;20.70;;;;;;;;;;5036103;28;20430;-79
2022/08/04 02:46:04;;;;;;;22.57;20.43;;;;;;;;;;5036354;28;20439;-80
2022/08/04 02:48:33;;;;;;;21.87;20.30;;;;;;;;;;5042829;28;20456;-80
2022/08/04 02:51:01;;;;;;;22.73;20.70;;;;;;;;;;5036516;28;20442;-80
2022/08/04 02:53:31;;;;;;;21.70;20.20;;;;;;;;;;5035884;28;20421;-80
2022/08/04 02:56:01;;;;;;;22.33;20.77;;;;;;;;;;5035748;28;20440;-80
2022/08/04 02:58:30;;;;;;;23.40;21.30;;;;;;;;;;5035694;28;20445;-79
2022/08/04 03:00:57;;;;;;;22.70;20.63;;;;;;;;;;5036052;28;20406;-80
2022/08/04 03:03:26;;;;;;;21.70;20.20;;;;;;;;;;5035816;28;20435;-80
2022/08/04 03:06:25;;;;;;;23.43;21.73;;;;;;;;;;5035641;28;20497;-79
2022/08/04 03:09:06;;;;;;;21.50;20.00;;;;;;;;;;5035934;28;20435;-80
2022/08/04 03:11:50;;;;;;;22.40;20.70;;;;;;;;;;5035588;28;20436;-80
2022/08/04 03:14:35;;;;;;;22.20;20.50;;;;;;;;;;5035871;28;20791;-80
2022/08/04 03:17:21;;;;;;;21.90;20.20;;;;;;;;;;5035591;28;20407;-80
2022/08/04 03:20:04;;;;;;;22.03;20.30;;;;;;;;;;5035733;28;20463;-79
2022/08/04 03:22:49;;;;;;;21.60;20.10;;;;;;;;;;5035385;28;20422;-80
2022/08/04 03:25:35;;;;;;;22.07;20.40;;;;;;;;;;5035496;28;20424;-80
2022/08/04 03:28:30;;;;;;;22.67;21.07;;;;;;;;;;5035011;28;20810;-80
2022/08/04 03:31:08;;;;;;;21.87;20.33;;;;;;;;;;4993647;28;20786;-80
2022/08/04 03:33:43;;;;;;;22.50;20.30;;;;;;;;;;4993791;28;20480;-79
2022/08/04 03:36:18;;;;;;;21.93;20.10;;;;;;;;;;4993610;28;20460;-80
2022/08/04 03:38:57;;;;;;;22.00;20.27;;;;;;;;;;4993540;28;20444;-80
2022/08/04 03:41:42;;;;;;;20.70;19.30;;;;;;;;;;4993485;28;20464;-80
2022/08/04 03:44:32;;;;;;;22.30;20.80;;;;;;;;;;4984008;28;20457;-80
2022/08/04 03:47:24;;;;;;;22.03;20.47;;;;;;;;;;4992098;28;20873;-80
2022/08/04 03:50:13;;;;;;;20.27;18.80;;;;;;;;;;4993397;28;20490;-80
2022/08/04 03:53:09;;;;;;;21.30;19.63;;;;;;;;;;4993207;28;20489;-80
2022/08/04 03:55:50;;;;;;;21.50;20.00;;;;;;;;;;4993155;28;20495;-79
2022/08/04 03:58:33;;;;;;;21.83;20.23;;;;;;;;;;4993085;28;20416;-80
2022/08/04 04:01:06;;;;;;;22.70;21.00;;;;;;;;;;4992987;28;20432;-80
2022/08/04 04:03:44;;;;;;;24.70;23.00;;;;;;;;;;4992985;28;20407;-80
2022/08/04 04:06:36;;;;;;;24.10;22.10;;;;;;;;;;5004718;28;20458;-80
2022/08/04 04:09:27;;;;;;;21.70;20.10;;;;;;;;;;5034732;28;20433;-80
2022/08/04 04:12:12;;;;;;;23.10;21.20;;;;;;;;;;5019807;28;20938;-79
2022/08/04 04:14:48;;;;;;;21.90;20.50;;;;;;;;;;5034803;28;20425;-82
2022/08/04 04:17:33;;;;;;;22.13;20.70;;;;;;;;;;5034608;28;20443;-82
2022/08/04 04:20:13;;;;;;;23.33;21.50;;;;;;;;;;5034713;28;20425;-81
2022/08/04 04:22:52;;;;;;;22.47;20.77;;;;;;;;;;5034258;28;20418;-80
2022/08/04 04:25:31;;;;;;;21.90;20.40;;;;;;;;;;5034384;28;20765;-79
2022/08/04 04:28:19;;;;;;;21.73;20.30;;;;;;;;;;5034038;28;20484;-82
2022/08/04 04:30:53;;;;;;;21.17;19.70;;;;;;;;;;5029653;28;20834;-81
2022/08/04 04:33:27;;;;;;;20.87;19.40;;;;;;;;;;5034156;28;20443;-82
2022/08/04 04:36:02;;;;;;;21.27;19.80;;;;;;;;;;5034484;28;20945;-81
2022/08/04 04:38:42;;;;;;;20.50;19.20;;;;;;;;;;5036156;28;20442;-82
2022/08/04 04:41:22;;;;;;;21.33;19.83;;;;;;;;;;5034674;28;20896;-81
2022/08/04 04:44:05;;;;;;;20.70;19.33;;;;;;;;;;5034301;28;20848;-82
2022/08/04 04:46:38;;;;;;;23.23;21.57;;;;;;;;;;5034398;28;20422;-82
2022/08/04 04:49:09;;;;;;;21.97;20.67;;;;;;;;;;5034049;28;20436;-82
2022/08/04 04:51:43;;;;;;;21.70;20.23;;;;;;;;;;5034021;28;20421;-82
2022/08/04 04:54:14;;;;;;;21.87;20.43;;;;;;;;;;5034038;28;20490;-83
2022/08/04 04:56:45;;;;;;;22.27;20.60;;;;;;;;;;5033590;28;20439;-82
2022/08/04 04:59:15;;;;;;;21.37;20.17;;;;;;;;;;5033500;28;20784;-83
2022/08/04 05:01:57;;;;;;;21.87;19.93;;;;;;;;;;5033749;28;20476;-82
2022/08/04 05:04:49;;;;;;;22.30;21.10;;;;;;;;;;5033402;28;20829;-80
2022/08/04 05:07:33;;;;;;;20.47;19.17;;;;;;;;;;5018390;28;20474;-80
2022/08/04 05:10:06;;;;;;;21.60;20.30;;;;;;;;;;5033235;28;20453;-80
2022/08/04 05:12:48;;;;;;;20.80;19.30;;;;;;;;;;5033401;28;20412;-80
2022/08/04 05:15:17;;;;;;;20.00;18.70;;;;;;;;;;5031952;28;20418;-80
2022/08/04 05:17:52;;;;;;;20.90;19.53;;;;;;;;;;5033389;28;20426;-81
2022/08/04 05:20:22;;;;;;;22.73;21.33;;;;;;;;;;5032176;28;20442;-80
2022/08/04 05:22:54;;;;;;;20.70;19.53;;;;;;;;;;5032923;28;20414;-80
2022/08/04 05:25:22;;;;;;;21.77;20.50;;;;;;;;;;5033124;28;20419;-81
2022/08/04 05:27:51;;;;;;;20.70;19.60;;;;;;;;;;5032591;28;20853;-80
2022/08/04 05:30:19;;;;;;;21.07;19.83;;;;;;;;;;5033155;28;20802;-80
2022/08/04 05:32:49;;;;;;;20.67;19.30;;;;;;;;;;5032708;28;20444;-79
2022/08/04 05:35:21;;;;;;;21.83;20.43;;;;;;;;;;5032657;28;20422;-80
2022/08/04 05:37:50;;;;;;;22.30;20.90;;;;;;;;;;5032569;28;20919;-80
2022/08/04 05:40:20;;;;;;;20.33;19.13;;;;;;;;;;5032845;28;20440;-80
2022/08/04 05:42:48;;;;;;;21.77;20.27;;;;;;;;;;5032447;28;20432;-80
2022/08/04 05:45:16;;;;;;;20.60;19.30;;;;;;;;;;5032990;28;20960;-79
2022/08/04 05:47:43;;;;;;;22.70;21.17;;;;;;;;;;5032777;28;20490;-80
2022/08/04 05:50:11;;;;;;;21.03;19.73;;;;;;;;;;5032703;28;20423;-80
2022/08/04 05:52:39;;;;;;;21.53;20.33;;;;;;;;;;5032535;28;20443;-79
2022/08/04 05:55:08;;;;;;;21.43;20.00;;;;;;;;;;5032438;28;20451;-80
2022/08/04 05:57:39;;;;;;;21.23;20.03;;;;;;;;;;5023148;28;20445;-79
2022/08/04 06:00:08;;;;;;;22.00;20.70;;;;;;;;;;5032583;28;20483;-81
2022/08/04 06:02:36;;;;;;;22.03;20.67;;;;;;;;;;5021152;28;20450;-81
2022/08/04 06:05:06;;;;;;;21.47;20.27;;;;;;;;;;5013941;28;20433;-82
2022/08/04 06:07:34;;;;;;;22.63;21.10;;;;;;;;;;5015959;28;20576;-83
2022/08/04 06:10:01;;;;;;;21.10;19.90;;;;;;;;;;5014962;28;20449;-82
2022/08/04 06:12:33;;;;;;;21.37;20.17;;;;;;;;;;5019681;28;20418;-82
2022/08/04 06:15:02;;;;;;;21.23;20.03;;;;;;;;;;5019736;28;20418;-82
2022/08/04 06:17:31;;;;;;;21.50;20.20;;;;;;;;;;5020376;28;20532;-82
2022/08/04 06:20:00;;;;;;;20.57;19.27;;;;;;;;;;5019833;28;20411;-82
2022/08/04 06:22:28;;;;;;;22.00;20.40;;;;;;;;;;5020048;28;20449;-85
2022/08/04 06:24:56;;;;;;;20.50;19.23;;;;;;;;;;5020093;28;20460;-81
2022/08/04 06:27:24;;;;;;;21.97;20.37;;;;;;;;;;5019443;28;20827;-81
2022/08/04 06:29:53;;;;;;;20.60;19.40;;;;;;;;;;5021598;28;20855;-81
2022/08/04 06:32:27;;;;;;;21.47;20.27;;;;;;;;;;5020042;28;20456;-81
2022/08/04 06:34:56;;;;;;;21.80;20.60;;;;;;;;;;5020378;28;20419;-82
2022/08/04 06:37:24;;;;;;;21.37;20.17;;;;;;;;;;5019957;28;20954;-82
2022/08/04 06:39:52;;;;;;;22.70;21.40;;;;;;;;;;5019909;28;20418;-82
2022/08/04 06:42:21;;;;;;;22.93;21.53;;;;;;;;;;5019941;28;20437;-82
2022/08/04 06:44:50;;;;;;;22.13;20.83;;;;;;;;;;5020107;28;20489;-82
2022/08/04 06:47:20;;;;;;;21.87;20.33;;;;;;;;;;5019819;28;20414;-82
2022/08/04 06:49:50;;;;;;;22.73;21.43;;;;;;;;;;5019808;28;20446;-81
2022/08/04 06:52:18;;;;;;;21.40;20.20;;;;;;;;;;5020560;28;20443;-82
2022/08/04 06:54:45;;;;;;;22.70;21.20;;;;;;;;;;5019946;28;20461;-82
2022/08/04 06:57:15;;;;;;;21.57;20.40;;;;;;;;;;5020589;28;20942;-82
2022/08/04 06:59:43;;;;;;;22.43;21.13;;;;;;;;;;5019295;28;20472;-81
2022/08/04 07:02:14;;;;;;;22.40;21.10;;;;;;;;;;5019502;28;20445;-82
2022/08/04 07:04:42;;;;;;;22.33;21.13;;;;;;;;;;5020211;28;20431;-81
2022/08/04 07:07:11;;;;;;;23.03;21.73;;;;;;;;;;5020319;28;20884;-81
2022/08/04 07:09:39;;;;;;;23.73;22.43;;;;;;;;;;5019796;28;20436;-81
2022/08/04 07:12:07;;;;;;;23.27;22.00;;;;;;;;;;5019439;28;20436;-81
2022/08/04 07:14:35;;;;;;;23.67;22.23;;;;;;;;;;5018450;28;20448;-80
2022/08/04 07:17:04;;;;;;;23.23;21.93;;;;;;;;;;5018782;28;20430;-81
2022/08/04 07:19:32;;;;;;;23.20;21.90;;;;;;;;;;5019534;28;20510;-79
2022/08/04 07:22:01;;;;;;;23.93;22.53;;;;;;;;;;5018086;28;20474;-81
2022/08/04 07:24:33;;;;;;;23.50;22.20;;;;;;;;;;5015888;28;20490;-80
2022/08/04 07:27:01;;;;;;;23.40;22.10;;;;;;;;;;5015687;28;20490;-81
2022/08/04 07:29:29;;;;;;;24.57;23.07;;;;;;;;;;5016779;28;20491;-82
2022/08/04 07:31:58;;;;;;;24.17;22.87;;;;;;;;;;5016830;28;21212;-83
2022/08/04 07:34:25;;;;;;;24.17;22.80;;;;;;;;;;5017771;28;20560;-78
2022/08/04 07:36:53;;;;;;;24.10;22.80;;;;;;;;;;5017025;28;20414;-80
2022/08/04 07:39:21;;;;;;;25.27;23.57;;;;;;;;;;5017973;28;20422;-80
2022/08/04 07:41:51;;;;;;;24.67;23.27;;;;;;;;;;5015468;28;20438;-80
2022/08/04 07:44:18;;;;;;;24.80;23.10;;;;;;;;;;5014853;28;20793;-77
2022/08/04 07:46:46;;;;;;;25.47;23.73;;;;;;;;;;5016595;28;20455;-85
2022/08/04 07:49:14;;;;;;;25.20;23.37;;;;;;;;;;5017200;28;20489;-84
2022/08/04 07:51:41;;;;;;;23.63;22.33;;;;;;;;;;5016071;28;20417;-79
2022/08/04 07:54:09;;;;;;;24.33;22.90;;;;;;;;;;5016175;28;20419;-80
2022/08/04 07:56:38;;;;;;;24.87;23.27;;;;;;;;;;5015802;28;20460;-80
2022/08/04 07:59:07;;;;;;;24.60;23.30;;;;;;;;;;5015874;28;20473;-80
2022/08/04 08:01:36;;;;;;;24.50;23.20;;;;;;;;;;5016017;28;20445;-79
2022/08/04 08:04:04;;;;;;;24.30;22.90;;;;;;;;;;5015603;28;20863;-80
2022/08/04 08:06:31;;;;;;;25.07;23.50;;;;;;;;;;5016046;28;20422;-80
2022/08/04 08:08:59;;;;;;;25.10;23.53;;;;;;;;;;5014039;28;20894;-79
2022/08/04 08:11:27;;;;;;;25.33;23.93;;;;;;;;;;5015389;28;20921;-79
2022/08/04 08:13:55;;;;;;;25.63;24.03;;;;;;;;;;5015188;28;20464;-79
2022/08/04 08:16:24;;;;;;;26.03;24.50;;;;;;;;;;5015276;28;20441;-78
2022/08/04 08:18:51;;;;;;;25.90;24.20;;;;;;;;;;5014921;28;20423;-80
2022/08/04 08:21:20;;;;;;;25.87;24.20;;;;;;;;;;5014658;28;20459;-79
2022/08/04 08:23:49;;;;;;;24.80;23.30;;;;;;;;;;5014653;28;20855;-75
2022/08/04 08:26:16;;;;;;;25.00;23.50;;;;;;;;;;5014941;28;20464;-80
2022/08/04 08:28:44;;;;;;;25.00;23.50;;;;;;;;;;5014714;28;20480;-82
2022/08/04 08:31:11;;;;;;;24.80;23.20;;;;;;;;;;5015510;28;20450;-81
2022/08/04 08:33:40;;;;;;;24.10;22.67;;;;;;;;;;5014721;28;20417;-85
2022/08/04 08:36:10;;;;;;;24.40;22.93;;;;;;;;;;5015392;28;20454;-80
2022/08/04 08:38:43;;;;;;;25.63;24.00;;;;;;;;;;5015217;28;20448;-81
2022/08/04 08:41:21;;;;;;;25.30;23.60;;;;;;;;;;5014892;28;20451;-79
2022/08/04 08:44:01;;;;;;;24.03;22.73;;;;;;;;;;5014592;28;20447;-80
2022/08/04 08:46:43;;;;;;;25.10;23.60;;;;;;;;;;5015318;28;20519;-80
2022/08/04 08:49:24;;;;;;;25.23;23.53;;;;;;;;;;5012304;28;20473;-80
2022/08/04 08:51:56;;;;;;;25.13;23.60;;;;;;;;;;5014244;28;20852;-79
2022/08/04 08:54:36;;;;;;;24.87;23.40;;;;;;;;;;5014230;28;20448;-80
2022/08/04 08:57:14;;;;;;;23.93;22.43;;;;;;;;;;5014295;28;20517;-80
2022/08/04 08:59:49;;;;;;;24.90;23.40;;;;;;;;;;5015226;28;20483;-80
2022/08/04 09:02:27;;;;;;;24.93;23.43;;;;;;;;;;5015028;28;20498;-80
2022/08/04 09:05:05;;;;;;;26.67;24.57;;;;;;;;;;5015084;28;20418;-80
2022/08/04 09:07:38;;;;;;;25.50;24.00;;;;;;;;;;5014912;28;20757;-80
2022/08/04 09:10:18;;;;;;;25.07;23.37;;;;;;;;;;5014923;28;20494;-80
2022/08/04 09:12:51;;;;;;;25.97;24.57;;;;;;;;;;5015033;28;20415;-79
2022/08/04 09:15:22;;;;;;;26.50;24.90;;;;;;;;;;5018646;28;20437;-80
2022/08/04 09:17:53;;;;;;;25.80;24.20;;;;;;;;;;5016379;28;20424;-80
2022/08/04 09:20:30;;;;;;;25.30;23.60;;;;;;;;;;5014918;28;20802;-81
2022/08/04 09:23:05;;;;;;;25.47;24.07;;;;;;;;;;5016677;28;20459;-81
2022/08/04 09:25:36;;;;;;;25.23;23.83;;;;;;;;;;5028112;28;20491;-81
2022/08/04 09:28:05;;;;;;;26.00;24.40;;;;;;;;;;5013338;28;20544;-83
2022/08/04 09:30:37;;;;;;;26.17;24.60;;;;;;;;;;5014689;28;20788;-80
2022/08/04 09:33:12;;;;;;;25.97;24.40;;;;;;;;;;5014073;28;20426;-80
2022/08/04 09:35:47;;;;;;;26.27;24.63;;;;;;;;;;5013954;28;20443;-81
2022/08/04 09:38:17;;;;;;;26.13;24.53;;;;;;;;;;5016978;28;20423;-81
2022/08/04 09:40:49;;;;;;;26.17;24.17;;;;;;;;;;5016490;28;20418;-80
2022/08/04 09:43:21;;;;;;;24.37;22.97;;;;;;;;;;5018233;28;20417;-81
2022/08/04 09:45:53;;;;;;;26.13;24.20;;;;;;;;;;5017009;28;20445;-81
2022/08/04 09:48:25;;;;;;;25.03;23.50;;;;;;;;;;5014594;28;20480;-81
2022/08/04 09:50:57;;;;;;;25.33;23.93;;;;;;;;;;5014571;28;20471;-81
2022/08/04 09:53:38;;;;;;;25.80;24.20;;;;;;;;;;5014328;28;20449;-81
2022/08/04 09:56:09;;;;;;;26.10;24.40;;;;;;;;;;5014590;28;20431;-81
2022/08/04 09:58:50;;;;;;;25.70;23.80;;;;;;;;;;5014580;28;20512;-81
2022/08/04 10:01:19;;;;;;;26.30;24.70;;;;;;;;;;5015429;28;20468;-81
2022/08/04 10:03:50;;;;;;;26.73;25.13;;;;;;;;;;5014092;28;20440;-81
2022/08/04 10:06:34;;;;;;;24.73;23.33;;;;;;;;;;5013416;28;20448;-81
2022/08/04 10:09:08;;;;;;;26.60;25.07;;;;;;;;;;5014942;28;20469;-80
2022/08/04 10:11:41;;;;;;;25.23;23.73;;;;;;;;;;5016290;28;20491;-80
2022/08/04 10:14:11;;;;;;;25.63;24.17;;;;;;;;;;5014075;28;20439;-80
2022/08/04 10:16:43;;;;;;;24.70;23.20;;;;;;;;;;5013997;28;20414;-79
2022/08/04 10:19:20;;;;;;;26.03;24.40;;;;;;;;;;5033630;28;20759;-80
2022/08/04 10:21:56;;;;;;;25.90;24.40;;;;;;;;;;5033884;28;20439;-80
2022/08/04 10:24:32;;;;;;;26.03;24.43;;;;;;;;;;5036649;28;20438;-81
2022/08/04 10:27:02;;;;;;;24.83;23.33;;;;;;;;;;5038720;28;20480;-83
2022/08/04 10:29:33;;;;;;;26.90;25.30;;;;;;;;;;5038495;28;20488;-81
2022/08/04 10:32:05;;;;;;;25.53;23.93;;;;;;;;;;5042958;28;20437;-79
2022/08/04 10:34:37;;;;;;;26.50;24.80;;;;;;;;;;5040283;28;20523;-78
2022/08/04 10:37:12;;;;;;;26.53;24.93;;;;;;;;;;5039447;28;20822;-79
2022/08/04 10:40:35;;;;;;;25.90;24.40;;;;;;;;;;5040638;28;20436;-81
2022/08/04 10:42:36;;;;;;;27.90;26.30;;;;;;;;;;5038930;28;20426;-81
2022/08/04 10:45:08;;;;;;;26.60;25.13;;;;;;;;;;5035750;28;20429;-80
2022/08/04 10:47:39;;;;;;;26.50;24.33;;;;;;;;;;5036238;28;20404;-81
2022/08/04 10:50:09;;;;;;;27.00;25.20;;;;;;;;;;5036182;28;20577;-80
2022/08/04 10:52:43;;;;;;;27.67;26.07;;;;;;;;;;5036656;28;20437;-80
2022/08/04 10:55:13;;;;;;;27.30;25.80;;;;;;;;;;5034800;28;20521;-81
2022/08/04 10:57:43;;;;;;;26.40;24.73;;;;;;;;;;5037822;28;20902;-81
2022/08/04 11:00:15;;;;;;;26.03;24.63;;;;;;;;;;5037782;28;20516;-80
2022/08/04 11:02:44;;;;;;;25.73;24.23;;;;;;;;;;5038390;28;20421;-81
2022/08/04 11:05:25;;;;;;;25.87;24.37;;;;;;;;;;5038645;28;20443;-79
2022/08/04 11:07:56;;;;;;;26.33;24.83;;;;;;;;;;5039476;28;20451;-80
2022/08/04 11:10:26;;;;;;;25.90;24.33;;;;;;;;;;5036400;28;20493;-81
2022/08/04 11:12:57;;;;;;;25.13;23.63;;;;;;;;;;5036770;28;20467;-81
2022/08/04 11:15:27;;;;;;;26.33;24.63;;;;;;;;;;5035675;28;20886;-81
2022/08/04 11:17:57;;;;;;;25.80;24.10;;;;;;;;;;5035611;28;20454;-81
2022/08/04 11:20:28;;;;;;;25.90;24.07;;;;;;;;;;5035718;28;20846;-81
2022/08/04 11:23:01;;;;;;;25.70;24.30;;;;;;;;;;5035559;28;20447;-81
2022/08/04 11:25:30;;;;;;;26.47;24.97;;;;;;;;;;5035685;28;20450;-81
2022/08/04 11:28:04;;;;;;;25.60;24.20;;;;;;;;;;5035461;28;20522;-81
2022/08/04 11:30:36;;;;;;;26.27;24.57;;;;;;;;;;5035987;28;20465;-80
2022/08/04 11:33:07;;;;;;;26.07;24.57;;;;;;;;;;5035437;28;20936;-81
2022/08/04 11:35:38;;;;;;;25.50;23.80;;;;;;;;;;5035394;28;20415;-80
2022/08/04 11:38:10;;;;;;;26.83;25.00;;;;;;;;;;5035304;28;20422;-81
2022/08/04 11:40:38;;;;;;;25.60;24.10;;;;;;;;;;5035202;28;20458;-80
2022/08/04 11:43:09;;;;;;;26.40;24.90;;;;;;;;;;5035519;28;20437;-81
2022/08/04 11:45:39;;;;;;;26.23;24.57;;;;;;;;;;5035287;28;20437;-81
2022/08/04 11:48:10;;;;;;;24.50;23.20;;;;;;;;;;5035092;28;20443;-81
2022/08/04 11:50:40;;;;;;;25.13;23.50;;;;;;;;;;5035169;28;20487;-80
2022/08/04 11:53:09;;;;;;;25.07;23.67;;;;;;;;;;5035216;28;20440;-80
2022/08/04 11:55:37;;;;;;;25.50;23.90;;;;;;;;;;5035240;28;20425;-81
2022/08/04 11:58:05;;;;;;;25.87;24.37;;;;;;;;;;5035191;28;20455;-81
2022/08/04 12:00:32;;;;;;;24.73;23.33;;;;;;;;;;5035284;28;20418;-80
2022/08/04 12:03:07;;;;;;;25.60;24.10;;;;;;;;;;5035087;28;20417;-80
2022/08/04 12:05:36;;;;;;;25.00;23.43;;;;;;;;;;5035000;28;20871;-80
2022/08/04 12:08:11;;;;;;;23.87;22.47;;;;;;;;;;5034383;28;20447;-80
2022/08/04 12:10:50;;;;;;;24.40;23.00;;;;;;;;;;5034746;28;20478;-80
2022/08/04 12:13:21;;;;;;;23.80;22.30;;;;;;;;;;5034964;28;20417;-80
2022/08/04 12:15:53;;;;;;;24.80;23.10;;;;;;;;;;5034459;28;20435;-80
2022/08/04 12:18:22;;;;;;;25.00;23.60;;;;;;;;;;5034635;28;20418;-78
2022/08/04 12:20:51;;;;;;;24.30;22.90;;;;;;;;;;5034736;28;20423;-81
2022/08/04 12:23:22;;;;;;;24.93;23.43;;;;;;;;;;5034320;28;20502;-80
2022/08/04 12:25:53;;;;;;;25.30;23.60;;;;;;;;;;5034056;28;20411;-81
2022/08/04 12:28:25;;;;;;;25.77;24.27;;;;;;;;;;5034611;28;20451;-81
2022/08/04 12:30:58;;;;;;;25.07;23.57;;;;;;;;;;5034121;28;20458;-80
2022/08/04 12:33:29;;;;;;;25.27;23.77;;;;;;;;;;5035985;28;20419;-81
2022/08/04 12:35:59;;;;;;;24.40;22.70;;;;;;;;;;5034560;28;20443;-80
2022/08/04 12:38:28;;;;;;;24.97;23.40;;;;;;;;;;5034225;28;20828;-79
2022/08/04 12:40:58;;;;;;;25.20;23.60;;;;;;;;;;5034297;28;20912;-80
2022/08/04 12:43:27;;;;;;;24.60;22.87;;;;;;;;;;5034871;28;20423;-81
2022/08/04 12:45:57;;;;;;;24.97;23.20;;;;;;;;;;5036436;28;20433;-80
2022/08/04 12:48:26;;;;;;;24.43;22.93;;;;;;;;;;5036930;28;20780;-81
2022/08/04 12:50:55;;;;;;;24.10;22.70;;;;;;;;;;5035460;28;20511;-80
2022/08/04 12:53:23;;;;;;;25.10;23.60;;;;;;;;;;5033787;28;20426;-80
2022/08/04 12:55:51;;;;;;;25.00;23.50;;;;;;;;;;5034862;28;20418;-81
2022/08/04 12:58:22;;;;;;;24.87;23.37;;;;;;;;;;5034341;28;20808;-80
2022/08/04 13:00:53;;;;;;;24.87;23.27;;;;;;;;;;5033929;28;20429;-80
2022/08/04 13:03:22;;;;;;;25.13;23.63;;;;;;;;;;5034135;28;20463;-80
2022/08/04 13:05:54;;;;;;;25.63;24.03;;;;;;;;;;5033709;28;20772;-80
2022/08/04 13:08:21;;;;;;;25.80;24.20;;;;;;;;;;5032894;28;20422;-81
2022/08/04 13:10:51;;;;;;;25.57;23.80;;;;;;;;;;5032958;28;20516;-80
2022/08/04 13:13:21;;;;;;;24.83;23.33;;;;;;;;;;5033812;28;20838;-80
2022/08/04 13:15:58;;;;;;;24.10;22.70;;;;;;;;;;5033450;28;20448;-80
2022/08/04 13:18:26;;;;;;;24.60;23.00;;;;;;;;;;5033784;28;20874;-80
2022/08/04 13:20:55;;;;;;;24.90;23.30;;;;;;;;;;5033224;28;20443;-80
2022/08/04 13:23:22;;;;;;;24.33;22.83;;;;;;;;;;5033543;28;20487;-81
2022/08/04 13:25:51;;;;;;;24.03;22.63;;;;;;;;;;5033212;28;20447;-82
2022/08/04 13:28:22;;;;;;;24.20;22.70;;;;;;;;;;5033477;28;20430;-80
2022/08/04 13:30:54;;;;;;;24.47;22.97;;;;;;;;;;5033314;28;20492;-81
2022/08/04 13:33:22;;;;;;;24.80;23.30;;;;;;;;;;5033356;28;20415;-81
2022/08/04 13:35:49;;;;;;;25.40;23.80;;;;;;;;;;5033418;28;20440;-80
2022/08/04 13:38:18;;;;;;;25.00;23.40;;;;;;;;;;5033153;28;20886;-81
2022/08/04 13:40:46;;;;;;;26.20;24.50;;;;;;;;;;5033377;28;20452;-81
2022/08/04 13:43:22;;;;;;;25.50;23.80;;;;;;;;;;5033248;28;20444;-81
2022/08/04 13:45:52;;;;;;;25.43;23.70;;;;;;;;;;5032993;28;20423;-81
2022/08/04 13:48:19;;;;;;;25.70;24.00;;;;;;;;;;5033127;28;20464;-80
2022/08/04 13:50:47;;;;;;;25.87;24.37;;;;;;;;;;5033081;28;20494;-81
2022/08/04 13:53:18;;;;;;;25.83;24.33;;;;;;;;;;5033193;28;20499;-81
2022/08/04 13:55:47;;;;;;;25.57;23.87;;;;;;;;;;5032766;28;20444;-81
2022/08/04 13:58:20;;;;;;;27.10;25.40;;;;;;;;;;5032678;28;20496;-81
2022/08/04 14:00:48;;;;;;;25.47;23.80;;;;;;;;;;5032782;28;20440;-80
2022/08/04 14:03:22;;;;;;;25.20;23.67;;;;;;;;;;5032765;28;20451;-80
2022/08/04 14:06:04;;;;;;;25.27;23.80;;;;;;;;;;5033400;28;20439;-80
2022/08/04 14:08:33;;;;;;;25.00;23.60;;;;;;;;;;5034217;28;20451;-80
2022/08/04 14:11:00;;;;;;;25.30;23.90;;;;;;;;;;5033168;28;20491;-80
2022/08/04 14:13:33;;;;;;;26.47;25.07;;;;;;;;;;5034726;28;20440;-80
2022/08/04 14:16:00;;;;;;;26.00;24.30;;;;;;;;;;5033952;28;20923;-80
2022/08/04 14:18:30;;;;;;;25.10;23.70;;;;;;;;;;5033613;28;20440;-80
2022/08/04 14:21:16;;;;;;;25.90;24.40;;;;;;;;;;5034074;28;20925;-80
2022/08/04 14:23:48;;;;;;;24.93;23.53;;;;;;;;;;5033696;28;20437;-79
2022/08/04 14:26:20;;;;;;;24.80;23.30;;;;;;;;;;5033168;28;20935;-79
2022/08/04 14:28:47;;;;;;;24.43;23.03;;;;;;;;;;5034603;28;20445;-79
2022/08/04 14:31:15;;;;;;;24.87;23.27;;;;;;;;;;5035760;28;20514;-78
2022/08/04 14:33:45;;;;;;;24.40;22.90;;;;;;;;;;5042410;28;20414;-78
2022/08/04 14:36:13;;;;;;;24.27;22.67;;;;;;;;;;5039357;28;20457;-79
2022/08/04 14:38:44;;;;;;;26.90;24.63;;;;;;;;;;5036715;28;20406;-79
2022/08/04 14:41:12;;;;;;;25.93;24.33;;;;;;;;;;5036598;28;20920;-79
2022/08/04 14:43:43;;;;;;;26.47;24.43;;;;;;;;;;5036348;28;20442;-79
2022/08/04 14:46:11;;;;;;;25.93;24.33;;;;;;;;;;5036623;28;20959;-79